PORT of AALESUND

Land: Norway Land: Norway (NO)
Latitude / Longitude: 62.4698° / 6.13655° Toon op kaart Toon op kaart
Lokale Tijd:  UTC +2
UN/LOCODE: NOAES
Schepen momenteel in haven: 24
Verwachte aankomsten: 4

Recente Aankomst- en Vertrektijden


Scheepsnaam
Aankomst (UTC)
Aankomst (LT)
Vertrek (UTC)
Vertrek (LT)
Vessel Type: Vissersboot  ATLANTIC VIKING 2014-09-21 05:49:00 2014-09-21 07:49:00
Vessel Type: Vissersboot  SKARSTEIN 2014-09-19 14:24:00 2014-09-19 16:24:00 2014-09-21 05:32:00 2014-09-21 07:32:00
Vessel Type: Sleepboot, Loods etc  MAX MAMMUT 2014-09-20 10:06:00 2014-09-20 12:06:00 2014-09-21 04:23:00 2014-09-21 06:23:00
Vessel Type: Cargoschip  LAKSFRAKT 2014-09-21 03:27:00 2014-09-21 05:27:00 2014-09-21 03:50:00 2014-09-21 05:50:00
Vessel Type: Sleepboot, Loods etc  LOS 118 2014-09-21 02:20:00 2014-09-21 04:20:00
Vessel Type: Jachten & Overige  CHARISMA 2014-09-18 12:42:00 2014-09-18 14:42:00 2014-09-21 02:08:00 2014-09-21 04:08:00
Vessel Type: Sleepboot, Loods etc  LOS 118 2014-09-20 18:10:00 2014-09-20 20:10:00 2014-09-21 01:57:00 2014-09-21 03:57:00
Vessel Type: Passagiersboot  POLARLYS 2014-09-20 22:32:00 2014-09-21 00:32:00 2014-09-20 23:33:00 2014-09-21 01:33:00
Vessel Type: Tankers  KYSTBUNKER 2014-09-20 22:07:00 2014-09-21 00:07:00 2014-09-20 22:18:00 2014-09-21 00:18:00
Vessel Type: Sleepboot, Loods etc  VIVAX 2014-09-20 21:46:00 2014-09-20 23:46:00

Verwachte aankomsten


Scheepsnaam
Scheduled Arrival (UTC)
Geplande Aankomst (lokale tijd)
Geschatte Aankomsttijd (UTC)
Geschatte Aankomsttijd (Lokaal)
Vessel Type: Cargoschip  HAVBLIK 2014-09-21 09:00:00 2014-09-21 11:00:00 2014-09-21 08:47:00 2014-09-21 10:47:00
Vessel Type: Cargoschip  COMETA 2014-09-21 13:30:00 2014-09-21 15:30:00 2014-09-21 12:23:00 2014-09-21 14:23:00
Vessel Type: Vissersboot  YAKOV GUNIN 2014-09-22 20:00:00 2014-09-22 22:00:00 2014-09-22 11:41:00 2014-09-22 13:41:00
Vessel Type: Cargoschip  WILSON BREST 2014-09-24 08:00:00 2014-09-24 10:00:00 2014-09-23 16:37:00 2014-09-23 18:37:00

Wind Forecast


    
Tijd (UTC)
Snelheid
Direction
Temperature
2014-09-21 06:00:00 21 knots 340° 13°C
2014-09-21 09:00:00 19 knots 341° 12°C
2014-09-21 12:00:00 15 knots 336° 11°C
2014-09-21 15:00:00 16 knots 332° 11°C
2014-09-21 18:00:00 15 knots 356° 11°C
2014-09-21 21:00:00 12 knots 25° 11°C
2014-09-22 00:00:00 11 knots 34° 10°C
2014-09-22 03:00:00 7 knots 63° 10°C
2014-09-22 06:00:00 4 knots 56° 10°C
2014-09-22 09:00:00 2 knots 90° 10°C
2014-09-22 12:00:00 4 knots 58° 10°C
2014-09-22 15:00:00 4 knots 81° 10°C
2014-09-22 18:00:00 5 knots 130° 9°C
2014-09-22 21:00:00 6 knots 178° 11°C
2014-09-23 00:00:00 12 knots 200° 12°C
2014-09-23 03:00:00 19 knots 195° 11°C
2014-09-23 06:00:00 21 knots 200° 12°C